Time;durP1;ratioP1;P1;durP2;ratioP2;P2;SDS_P1;SDS_P2;PMS_P1;PMS_P2;Temp;Humidity;BMP_temperature;BMP_pressure;BME280_temperature;BME280_humidity;BME280_pressure;Samples;Min_cycle;Max_cycle;Signal;HPM_P1;HPM_P2
2022/10/21 00:01:35;;;;;;;22.65;20.25;;;;;;;12.75;100.00;100689.94;5054747;28;20618;-63
2022/10/21 00:04:02;;;;;;;24.85;19.58;;;;;;;12.76;100.00;100693.38;5066289;28;20522;-63
2022/10/21 00:06:27;;;;;;;26.30;19.80;;;;;;;12.76;100.00;100680.38;5067936;28;20024;-63
2022/10/21 00:08:52;;;;;;;20.30;17.35;;;;;;;12.74;100.00;100677.75;5068157;28;20523;-62
2022/10/21 00:11:17;;;;;;;24.90;19.92;;;;;;;12.73;100.00;100676.03;5067218;28;20039;-63
2022/10/21 00:13:43;;;;;;;24.58;19.55;;;;;;;12.72;100.00;100672.53;5067945;28;20419;-63
2022/10/21 00:16:12;;;;;;;22.88;19.80;;;;;;;12.72;100.00;100676.84;5067299;28;20039;-62
2022/10/21 00:18:39;;;;;;;22.35;19.95;;;;;;;12.72;100.00;100677.72;5067981;28;20021;-63
2022/10/21 00:21:07;;;;;;;23.90;19.95;;;;;;;12.71;100.00;100676.00;5066117;28;20392;-63
2022/10/21 00:23:32;;;;;;;26.77;21.02;;;;;;;12.72;100.00;100669.03;5055100;28;20068;-63
2022/10/21 00:25:58;;;;;;;24.50;19.70;;;;;;;12.71;100.00;100668.19;5053792;28;20045;-62
2022/10/21 00:28:24;;;;;;;25.13;20.40;;;;;;;12.70;100.00;100669.03;5061555;28;20028;-63
2022/10/21 00:30:50;;;;;;;25.58;20.13;;;;;;;12.68;100.00;100660.31;5047455;28;20025;-62
2022/10/21 00:33:15;;;;;;;27.95;20.13;;;;;;;12.67;100.00;100661.16;5061064;28;20021;-63
2022/10/21 00:35:40;;;;;;;22.02;19.65;;;;;;;12.65;100.00;100660.25;5056930;28;20036;-63
2022/10/21 00:38:05;;;;;;;21.88;19.60;;;;;;;12.62;100.00;100660.19;5052533;28;20264;-62
2022/10/21 00:40:31;;;;;;;26.10;20.20;;;;;;;12.60;100.00;100664.47;5067182;28;20032;-63
2022/10/21 00:42:57;;;;;;;22.85;20.33;;;;;;;12.59;100.00;100666.19;5067390;28;20279;-63
2022/10/21 00:45:31;;;;;;;24.35;20.50;;;;;;;12.61;100.00;100676.63;5066603;28;20674;-63
2022/10/21 00:48:03;;;;;;;23.23;20.73;;;;;;;12.62;100.00;100675.78;5066785;28;20055;-63
2022/10/21 00:50:28;;;;;;;25.83;20.65;;;;;;;12.62;100.00;100670.59;5061163;28;20063;-63
2022/10/21 00:52:56;;;;;;;24.52;21.90;;;;;;;12.63;100.00;100672.34;5047588;28;20060;-62
2022/10/21 00:55:22;;;;;;;27.00;20.67;;;;;;;12.64;100.00;100663.72;5064363;28;20012;-62
2022/10/21 00:57:49;;;;;;;23.45;20.95;;;;;;;12.66;100.00;100662.03;5067156;28;20437;-62
2022/10/21 01:00:14;;;;;;;26.23;20.52;;;;;;;12.65;100.00;100655.06;5066553;28;20032;-63
2022/10/21 01:02:40;;;;;;;26.38;21.65;;;;;;;12.65;100.00;100648.97;5067522;28;20086;-62
2022/10/21 01:05:08;;;;;;;23.05;20.67;;;;;;;12.65;100.00;100649.84;5067488;28;20020;-62
2022/10/21 01:07:33;;;;;;;24.00;20.73;;;;;;;12.66;100.00;100640.34;5066953;28;20052;-62
2022/10/21 01:09:58;;;;;;;23.35;20.90;;;;;;;12.66;100.00;100640.34;5054810;28;20067;-62
2022/10/21 01:12:55;;;;;;;23.88;20.17;;;;;;;12.65;100.00;100635.97;5063253;28;20027;-63
2022/10/21 01:15:47;;;;;;;26.67;19.83;;;;;;;12.64;100.00;100634.22;5059676;28;20102;-64
2022/10/21 01:18:27;;;;;;;;;;;;;;;12.64;100.00;100636.81;5049777;28;20133;-63
2022/10/21 01:21:09;;;;;;;28.05;19.95;;;;;;;12.62;100.00;100626.41;5067228;28;19912;-63
2022/10/21 01:23:53;;;;;;;35.92;19.98;;;;;;;12.59;100.00;100626.34;5054867;28;20036;-63
2022/10/21 01:26:31;;;;;;;23.50;20.35;;;;;;;12.57;100.00;100621.13;5052480;28;20496;-63
2022/10/21 01:29:19;;;;;;;23.58;19.17;;;;;;;12.54;100.00;100610.66;5066921;28;20031;-64
2022/10/21 01:32:05;;;;;;;25.15;20.15;;;;;;;12.53;100.00;100608.00;5061650;28;20019;-63
2022/10/21 01:34:44;;;;;;;23.67;19.73;;;;;;;12.50;100.00;100601.06;5060721;28;20499;-63
2022/10/21 01:37:18;;;;;;;22.35;20.15;;;;;;;12.49;100.00;100597.56;5047021;28;20058;-64
2022/10/21 01:39:50;;;;;;;24.40;20.15;;;;;;;12.49;100.00;100594.09;5060753;28;20199;-63
2022/10/21 01:42:26;;;;;;;22.33;19.80;;;;;;;12.46;100.00;100589.72;5054689;28;20511;-64
2022/10/21 01:45:06;;;;;;;21.42;18.27;;;;;;;12.43;100.00;100587.03;5065570;28;20378;-63
2022/10/21 01:47:35;;;;;;;25.98;19.58;;;;;;;12.41;100.00;100582.66;5066499;28;20039;-63
2022/10/21 01:50:09;;;;;;;20.80;18.60;;;;;;;12.39;100.00;100580.03;5065989;28;20078;-63
2022/10/21 01:52:35;;;;;;;21.60;17.67;;;;;;;12.37;100.00;100576.53;5066350;28;20491;-63
2022/10/21 01:55:07;;;;;;;23.17;17.35;;;;;;;12.35;100.00;100573.03;5065095;28;20104;-63
2022/10/21 01:57:39;;;;;;;24.33;18.05;;;;;;;12.30;100.00;100572.94;5054174;28;20536;-64
2022/10/21 02:00:06;;;;;;;20.33;17.60;;;;;;;12.29;100.00;100575.47;5065184;28;20025;-64
2022/10/21 02:02:36;;;;;;;21.17;17.23;;;;;;;12.25;100.00;100565.03;5066388;28;20024;-64
2022/10/21 02:05:08;;;;;;;21.55;16.75;;;;;;;12.22;100.00;100564.97;5066429;28;20070;-63
2022/10/21 02:07:33;;;;;;;17.63;15.57;;;;;;;12.19;100.00;100567.50;5065969;28;20450;-63
2022/10/21 02:09:58;;;;;;;19.48;16.42;;;;;;;12.16;100.00;100564.84;5070124;28;20108;-63
2022/10/21 02:12:26;;;;;;;20.35;18.13;;;;;;;12.13;100.00;100557.88;5066605;28;20056;-63
2022/10/21 02:14:54;;;;;;;18.88;16.25;;;;;;;12.12;100.00;100560.44;5066148;28;20036;-63
2022/10/21 02:17:21;;;;;;;18.05;15.75;;;;;;;12.10;100.00;100556.94;5066036;28;20055;-63
2022/10/21 02:19:47;;;;;;;21.10;17.02;;;;;;;12.08;100.00;100543.00;5066478;28;20399;-63
2022/10/21 02:22:17;;;;;;;21.92;16.50;;;;;;;12.06;100.00;100539.47;5056485;28;20041;-63
2022/10/21 02:24:57;;;;;;;20.33;16.63;;;;;;;12.01;100.00;100536.81;5050728;28;20107;-63
2022/10/21 02:27:23;;;;;;;19.92;16.33;;;;;;;12.00;100.00;100545.41;5078744;28;20037;-64
2022/10/21 02:29:52;;;;;;;15.98;14.32;;;;;;;11.96;100.00;100539.28;5069190;28;20028;-64
2022/10/21 02:32:36;;;;;;;17.80;14.68;;;;;;;11.92;100.00;100541.78;5069885;28;20013;-63
2022/10/21 02:35:16;;;;;;;18.90;16.05;;;;;;;11.88;100.00;100554.72;5051726;28;20074;-63
2022/10/21 02:37:56;;;;;;;19.85;14.98;;;;;;;11.89;100.00;100558.19;5061060;28;20090;-63
2022/10/21 02:40:25;;;;;;;18.53;15.50;;;;;;;11.87;100.00;100565.06;5055547;28;20044;-63
2022/10/21 02:42:58;;;;;;;22.45;16.17;;;;;;;11.85;100.00;100553.78;5069175;28;20389;-63
2022/10/21 02:45:25;;;;;;;21.15;16.42;;;;;;;11.84;100.00;100541.59;5083407;28;20021;-63
2022/10/21 02:47:51;;;;;;;19.20;16.95;;;;;;;11.84;100.00;100559.78;5068873;28;20028;-63
2022/10/21 02:50:16;;;;;;;21.83;17.48;;;;;;;11.85;100.00;100558.97;5069409;28;20032;-64
2022/10/21 02:52:41;;;;;;;21.27;16.85;;;;;;;11.84;100.00;100546.81;5069675;28;20020;-63
2022/10/21 02:55:07;;;;;;;22.10;17.25;;;;;;;11.84;100.00;100549.41;5054839;28;20098;-63
2022/10/21 02:57:33;;;;;;;19.52;17.08;;;;;;;11.84;100.00;100531.22;5069529;28;20060;-64
2022/10/21 02:59:58;;;;;;;17.92;16.00;;;;;;;11.79;100.00;100531.13;5069344;28;20100;-63
2022/10/21 03:02:23;;;;;;;17.95;16.00;;;;;;;11.77;100.00;100533.69;5069103;28;20013;-63
2022/10/21 03:04:48;;;;;;;17.52;15.82;;;;;;;11.74;100.00;100536.25;5059888;28;20132;-64
2022/10/21 03:07:14;;;;;;;18.33;16.42;;;;;;;11.70;100.00;100534.41;5051141;28;20028;-63
2022/10/21 03:09:40;;;;;;;17.88;15.00;;;;;;;11.71;100.00;100537.88;5060653;28;20056;-63
2022/10/21 03:12:05;;;;;;;18.65;15.98;;;;;;;11.68;100.00;100537.78;5062927;28;20409;-64
2022/10/21 03:14:31;;;;;;;20.25;16.58;;;;;;;11.65;100.00;100543.81;5067459;28;20020;-63
2022/10/21 03:16:56;;;;;;;19.73;15.20;;;;;;;11.61;100.00;100529.88;5068948;28;20463;-64
2022/10/21 03:19:21;;;;;;;19.27;15.65;;;;;;;11.61;100.00;100536.78;5068912;28;20028;-63
2022/10/21 03:21:46;;;;;;;16.50;14.25;;;;;;;11.61;100.00;100529.88;5068173;28;20036;-63
2022/10/21 03:24:12;;;;;;;16.27;14.18;;;;;;;11.57;100.00;100534.94;5068375;28;20107;-64
2022/10/21 03:26:37;;;;;;;19.35;15.60;;;;;;;11.57;100.00;100535.84;5062916;28;20024;-64
2022/10/21 03:29:02;;;;;;;16.45;14.68;;;;;;;11.58;100.00;100539.31;5060867;28;20024;-63
2022/10/21 03:31:28;;;;;;;16.27;14.57;;;;;;;11.56;100.00;100543.59;5064331;28;20017;-63
2022/10/21 03:33:53;;;;;;;20.40;14.32;;;;;;;11.56;100.00;100543.59;5047996;28;20027;-63
2022/10/21 03:36:19;;;;;;;16.48;14.75;;;;;;;11.53;100.00;100540.09;5048157;28;20029;-63
2022/10/21 03:38:44;;;;;;;19.52;14.65;;;;;;;11.55;100.00;100534.91;5056585;28;20056;-63
2022/10/21 03:41:09;;;;;;;17.98;15.65;;;;;;;11.55;100.00;100536.66;5054923;28;20496;-63
2022/10/21 03:43:35;;;;;;;20.75;14.93;;;;;;;11.56;100.00;100530.63;5053503;28;20032;-63
2022/10/21 03:46:00;;;;;;;18.58;15.32;;;;;;;11.55;100.00;100531.47;5068001;28;20073;-64
2022/10/21 03:48:25;;;;;;;16.98;14.10;;;;;;;11.53;100.00;100534.88;5065008;28;20037;-64
2022/10/21 03:50:50;;;;;;;20.05;15.50;;;;;;;11.52;100.00;100524.47;5048633;28;20469;-63
2022/10/21 03:53:16;;;;;;;16.48;14.27;;;;;;;11.52;100.00;100527.97;5062159;28;20031;-63
2022/10/21 03:55:41;;;;;;;17.30;14.90;;;;;;;11.50;100.00;100521.84;5055551;28;20388;-64
2022/10/21 03:58:06;;;;;;;22.30;15.32;;;;;;;11.49;100.00;100522.72;5068429;28;20036;-63
2022/10/21 04:00:32;;;;;;;19.13;14.10;;;;;;;11.47;100.00;100516.59;5061954;28;20074;-63
2022/10/21 04:02:57;;;;;;;17.17;14.20;;;;;;;11.45;100.00;100520.88;5059234;28;20125;-63
2022/10/21 04:05:23;;;;;;;16.02;13.52;;;;;;;11.45;100.00;100520.88;5053978;28;20028;-63
2022/10/21 04:07:48;;;;;;;15.75;14.10;;;;;;;11.42;100.00;100526.00;5068023;28;20028;-63
2022/10/21 04:10:13;;;;;;;22.15;13.90;;;;;;;11.41;100.00;100525.13;5066882;28;20028;-63
2022/10/21 04:12:39;;;;;;;17.10;13.95;;;;;;;11.39;100.00;100526.78;5067976;28;20072;-63
2022/10/21 04:15:05;;;;;;;19.65;14.05;;;;;;;11.38;100.00;100524.16;5058762;28;20041;-63
2022/10/21 04:17:31;;;;;;;19.45;14.10;;;;;;;11.37;100.00;100522.41;5048603;28;20392;-63
2022/10/21 04:19:56;;;;;;;15.82;13.90;;;;;;;11.35;100.00;100518.91;5068204;28;20016;-63
2022/10/21 04:22:21;;;;;;;15.60;13.15;;;;;;;11.34;100.00;100523.22;5067262;28;20638;-63
2022/10/21 04:24:46;;;;;;;17.27;13.98;;;;;;;11.32;100.00;100517.09;5047762;28;20020;-63
2022/10/21 04:27:12;;;;;;;17.85;14.18;;;;;;;11.31;100.00;100522.25;5058653;28;20032;-63
2022/10/21 04:29:37;;;;;;;18.98;13.25;;;;;;;11.28;100.00;100512.69;5064363;28;20070;-63
2022/10/21 04:32:02;;;;;;;19.17;13.93;;;;;;;11.26;100.00;100520.41;5055970;28;20492;-63
2022/10/21 04:34:28;;;;;;;16.92;13.05;;;;;;;11.24;100.00;100527.28;5066659;28;20107;-63
2022/10/21 04:36:53;;;;;;;16.50;12.90;;;;;;;11.24;100.00;100540.25;5067450;28;20044;-63
2022/10/21 04:39:18;;;;;;;20.05;13.20;;;;;;;11.23;100.00;100545.41;5065930;28;20453;-62
2022/10/21 04:41:44;;;;;;;19.30;13.05;;;;;;;11.21;100.00;100532.41;5067062;28;20433;-64
2022/10/21 04:44:10;;;;;;;16.50;13.32;;;;;;;11.22;100.00;100526.41;5067074;28;20591;-65
2022/10/21 04:46:35;;;;;;;15.10;13.27;;;;;;;11.20;100.00;100534.97;5061382;28;20036;-65
2022/10/21 04:49:00;;;;;;;20.63;13.88;;;;;;;11.19;100.00;100539.25;5065710;28;20036;-63
2022/10/21 04:51:26;;;;;;;15.70;12.93;;;;;;;11.18;100.00;100537.53;5066952;28;20033;-63
2022/10/21 04:53:51;;;;;;;19.45;12.98;;;;;;;11.17;100.00;100533.19;5066948;28;20025;-63
2022/10/21 04:56:16;;;;;;;14.65;12.60;;;;;;;11.16;100.00;100527.13;5066823;28;20032;-63
2022/10/21 04:58:41;;;;;;;13.20;11.77;;;;;;;11.16;100.00;100529.72;5066948;28;20040;-63
2022/10/21 05:01:07;;;;;;;13.73;12.35;;;;;;;11.16;100.00;100521.03;5047591;28;20032;-63
2022/10/21 05:03:32;;;;;;;18.10;12.10;;;;;;;11.15;100.00;100527.09;5051658;28;20040;-63
2022/10/21 05:05:57;;;;;;;14.52;11.20;;;;;;;11.14;100.00;100525.31;5051812;28;20052;-62
2022/10/21 05:08:23;;;;;;;17.48;11.68;;;;;;;11.14;100.00;100526.19;5052760;28;20037;-62
2022/10/21 05:10:48;;;;;;;15.13;11.38;;;;;;;11.13;100.00;100526.16;5056593;28;20432;-62
2022/10/21 05:13:14;;;;;;;15.88;10.93;;;;;;;11.11;100.00;100520.94;5065071;28;20055;-62
2022/10/21 05:15:39;;;;;;;16.25;10.82;;;;;;;11.10;100.00;100528.69;5067090;28;20028;-63
2022/10/21 05:18:05;;;;;;;16.15;10.88;;;;;;;11.10;100.00;100523.50;5047071;28;20025;-62
2022/10/21 05:20:30;;;;;;;13.38;10.75;;;;;;;11.09;100.00;100519.13;5058269;28;20535;-63
2022/10/21 05:22:55;;;;;;;12.05;9.68;;;;;;;11.10;100.00;100513.97;5045129;28;20029;-62
2022/10/21 05:25:21;;;;;;;13.70;9.52;;;;;;;11.10;100.00;100506.22;5046216;28;20534;-62
2022/10/21 05:27:46;;;;;;;18.45;10.60;;;;;;;11.11;100.00;100512.28;5048025;28;20263;-62
2022/10/21 05:30:12;;;;;;;11.88;9.85;;;;;;;11.10;100.00;100507.94;5049080;28;20029;-62
2022/10/21 05:32:39;;;;;;;11.55;9.02;;;;;;;11.11;100.00;100496.72;5047811;28;20148;-62
2022/10/21 05:35:05;;;;;;;10.80;9.25;;;;;;;11.11;100.00;100499.31;5048049;28;20165;-62
2022/10/21 05:37:31;;;;;;;10.13;8.90;;;;;;;11.09;100.00;100496.69;5057026;28;20098;-62
2022/10/21 05:39:56;;;;;;;12.07;8.77;;;;;;;11.09;100.00;100495.81;5064743;28;20025;-62
2022/10/21 05:42:21;;;;;;;10.70;9.40;;;;;;;11.07;100.00;100494.88;5056706;28;20040;-63
2022/10/21 05:44:47;;;;;;;15.20;11.77;;;;;;;11.06;100.00;100491.44;5058243;28;20048;-62
2022/10/21 05:47:12;;;;;;;12.15;9.95;;;;;;;11.01;100.00;100478.34;5052912;28;20017;-62
2022/10/21 05:49:38;;;;;;;11.32;8.15;;;;;;;10.99;100.00;100480.00;5066463;28;20020;-62
2022/10/21 05:52:03;;;;;;;13.95;9.32;;;;;;;10.97;100.00;100484.31;5053616;28;20033;-62
2022/10/21 05:54:28;;;;;;;9.63;7.45;;;;;;;10.93;100.00;100479.88;5070953;28;20055;-62
2022/10/21 05:56:55;;;;;;;8.65;7.75;;;;;;;10.91;100.00;100481.53;5063382;28;20575;-62
2022/10/21 05:59:21;;;;;;;8.55;7.68;;;;;;;10.89;100.00;100483.22;5044595;28;20041;-62
2022/10/21 06:01:46;;;;;;;11.10;7.95;;;;;;;10.89;100.00;100488.41;5049898;28;20021;-62
2022/10/21 06:04:12;;;;;;;9.52;7.10;;;;;;;10.87;100.00;100485.78;5052765;28;20035;-63
2022/10/21 06:06:37;;;;;;;11.45;7.68;;;;;;;10.85;100.00;100486.59;5066210;28;20035;-63
2022/10/21 06:09:02;;;;;;;11.63;7.63;;;;;;;10.84;100.00;100477.94;5050877;28;20140;-63
2022/10/21 06:11:27;;;;;;;10.95;7.38;;;;;;;10.84;100.00;100484.81;5053310;28;20021;-62
2022/10/21 06:13:53;;;;;;;8.57;6.75;;;;;;;10.83;100.00;100488.28;5051980;28;20035;-62
2022/10/21 06:16:18;;;;;;;10.32;7.93;;;;;;;10.81;100.00;100485.63;5052214;28;20025;-63
2022/10/21 06:18:43;;;;;;;7.75;6.18;;;;;;;10.79;100.00;100482.97;5051841;28;20025;-62
2022/10/21 06:21:09;;;;;;;11.90;7.55;;;;;;;10.78;100.00;100477.75;5049297;28;20081;-63
2022/10/21 06:23:34;;;;;;;8.27;7.22;;;;;;;10.77;100.00;100484.69;5051035;28;20031;-62
2022/10/21 06:26:05;;;;;;;12.00;7.68;;;;;;;10.78;100.00;100483.84;5050806;28;20473;-62
2022/10/21 06:28:32;;;;;;;;;;;;;;;10.77;100.00;100479.50;5055375;28;20413;-62
2022/10/21 06:30:57;;;;;;;10.68;8.25;;;;;;;10.77;100.00;100482.09;5054191;28;19978;-63
2022/10/21 06:33:23;;;;;;;10.38;8.13;;;;;;;10.78;100.00;100477.75;5053941;28;20021;-63
2022/10/21 06:35:49;;;;;;;11.77;7.90;;;;;;;10.77;100.00;100484.69;5050687;28;20025;-63
2022/10/21 06:38:14;;;;;;;10.95;8.25;;;;;;;10.79;100.00;100482.13;5067518;28;20368;-63
2022/10/21 06:40:41;;;;;;;8.82;7.03;;;;;;;10.78;100.00;100476.06;5078567;28;20042;-63
2022/10/21 06:43:06;;;;;;;10.00;7.55;;;;;;;10.82;100.00;100489.97;5071886;28;20118;-63
2022/10/21 06:45:32;;;;;;;10.65;7.82;;;;;;;10.84;100.00;100496.06;5069334;28;20563;-63
2022/10/21 06:47:57;;;;;;;11.23;7.60;;;;;;;10.87;100.00;100506.50;5069855;28;20029;-62
2022/10/21 06:50:22;;;;;;;12.07;7.43;;;;;;;10.91;100.00;100510.06;5067864;28;20029;-63
2022/10/21 06:52:49;;;;;;;9.63;7.03;;;;;;;10.95;100.00;100509.31;5081247;28;20013;-63
2022/10/21 06:55:15;;;;;;;10.07;6.60;;;;;;;10.99;100.00;100511.13;5067711;28;20028;-63
2022/10/21 06:57:41;;;;;;;8.73;7.18;;;;;;;11.03;100.00;100518.16;5067191;28;20021;-62
2022/10/21 07:00:07;;;;;;;11.23;7.32;;;;;;;11.08;100.00;100526.03;5077813;28;20285;-63
2022/10/21 07:02:33;;;;;;;10.13;6.63;;;;;;;11.12;100.00;100535.66;5065103;28;20445;-63
2022/10/21 07:04:58;;;;;;;11.23;6.20;;;;;;;11.15;100.00;100537.47;5079007;28;20023;-63
2022/10/21 07:07:23;;;;;;;11.02;6.85;;;;;;;11.20;100.00;100545.34;5070190;28;20475;-62
2022/10/21 07:09:49;;;;;;;10.35;6.97;;;;;;;11.22;100.00;100552.34;5069232;28;20020;-62
2022/10/21 07:12:15;;;;;;;10.73;6.82;;;;;;;11.26;100.00;100546.38;5067575;28;20024;-62
2022/10/21 07:14:40;;;;;;;9.68;6.88;;;;;;;11.30;100.00;100552.50;5055194;28;20065;-62
2022/10/21 07:17:06;;;;;;;11.27;7.38;;;;;;;11.34;100.00;100553.44;5056452;28;20457;-63
2022/10/21 07:19:32;;;;;;;10.57;7.32;;;;;;;11.38;100.00;100557.88;5066196;28;20032;-62
2022/10/21 07:21:57;;;;;;;9.52;7.22;;;;;;;11.41;100.00;100560.56;5068637;28;20540;-63
2022/10/21 07:24:22;;;;;;;9.65;6.72;;;;;;;11.45;100.00;100549.41;5068321;28;20087;-63
2022/10/21 07:26:48;;;;;;;12.18;7.25;;;;;;;11.48;100.00;100548.59;5068305;28;20069;-62
2022/10/21 07:29:13;;;;;;;14.77;8.05;;;;;;;11.51;100.00;100552.13;5068748;28;20039;-62
2022/10/21 07:31:38;;;;;;;9.90;7.03;;;;;;;11.55;100.00;100553.09;5053923;28;20631;-63
2022/10/21 07:34:06;;;;;;;13.77;8.48;;;;;;;11.59;100.00;100554.03;5068511;28;20153;-63
2022/10/21 07:36:37;;;;;;;9.90;7.40;;;;;;;11.62;100.00;100559.31;5068660;28;20035;-63
2022/10/21 07:39:06;;;;;;;10.73;7.43;;;;;;;11.64;100.00;100553.31;5067903;28;20031;-63
2022/10/21 07:41:35;;;;;;;8.80;7.65;;;;;;;11.69;100.00;100560.34;5068122;28;20418;-62
2022/10/21 07:44:00;;;;;;;11.07;7.85;;;;;;;11.72;100.00;100563.88;5067799;28;20052;-62
2022/10/21 07:46:26;;;;;;;13.48;7.53;;;;;;;11.75;100.00;100561.34;5062967;28;20024;-62
2022/10/21 07:48:53;;;;;;;9.30;7.85;;;;;;;11.79;100.00;100566.59;5067026;28;20043;-63
2022/10/21 07:51:23;;;;;;;9.00;7.40;;;;;;;11.82;100.00;100572.72;5063305;28;20107;-62
2022/10/21 07:53:51;;;;;;;8.50;7.20;;;;;;;11.86;100.00;100571.09;5061657;28;20472;-62
2022/10/21 07:56:20;;;;;;;11.68;8.07;;;;;;;11.89;100.00;100574.63;5056324;28;20474;-62
2022/10/21 07:58:46;;;;;;;9.95;7.95;;;;;;;11.92;100.00;100563.44;5068380;28;20024;-62
2022/10/21 08:01:12;;;;;;;11.75;8.05;;;;;;;11.95;100.00;100570.41;5061565;28;20039;-62
2022/10/21 08:03:38;;;;;;;9.80;8.15;;;;;;;11.99;100.00;100577.44;5060067;28;20025;-62
2022/10/21 08:06:05;;;;;;;13.55;7.88;;;;;;;12.01;100.00;100581.84;5067923;28;20369;-63
2022/10/21 08:08:31;;;;;;;12.23;8.65;;;;;;;12.04;100.00;100572.31;5068340;28;20086;-62
2022/10/21 08:10:57;;;;;;;13.52;7.70;;;;;;;12.08;100.00;100574.16;5066624;28;20059;-63
2022/10/21 08:13:22;;;;;;;11.27;8.13;;;;;;;12.10;100.00;100569.91;5073567;28;20020;-63
2022/10/21 08:15:53;;;;;;;9.02;8.02;;;;;;;12.12;100.00;100557.84;5066242;28;20024;-62
2022/10/21 08:18:20;;;;;;;10.25;8.35;;;;;;;12.13;100.00;100557.88;5055914;28;20029;-62
2022/10/21 08:20:46;;;;;;;13.70;8.18;;;;;;;12.17;100.00;100552.72;5067614;28;20791;-62
2022/10/21 08:23:14;;;;;;;13.30;7.57;;;;;;;12.15;100.00;100554.41;5052956;28;20025;-62
2022/10/21 08:25:49;;;;;;;12.50;9.25;;;;;;;12.17;100.00;100564.00;5080368;28;20349;-62
2022/10/21 08:28:15;;;;;;;10.85;8.88;;;;;;;12.16;100.00;100562.22;5067580;28;20036;-63
2022/10/21 08:30:42;;;;;;;11.77;9.68;;;;;;;12.15;100.00;100581.28;5067253;28;20392;-62
2022/10/21 08:33:07;;;;;;;9.82;8.88;;;;;;;12.16;100.00;100595.16;5054822;28;20183;-63
2022/10/21 08:35:32;;;;;;;11.27;9.55;;;;;;;12.14;100.00;100595.13;5056601;28;20036;-62
2022/10/21 08:37:58;;;;;;;11.73;9.57;;;;;;;12.16;100.00;100576.97;5063093;28;20039;-63
2022/10/21 08:40:24;;;;;;;13.98;9.68;;;;;;;12.16;100.00;100576.97;5067516;28;20102;-62
2022/10/21 08:42:49;;;;;;;12.25;9.88;;;;;;;12.17;100.00;100589.97;5063678;28;20119;-62
2022/10/21 08:45:37;;;;;;;14.50;10.52;;;;;;;12.16;100.00;100587.34;5077549;28;20435;-62
2022/10/21 08:48:07;;;;;;;13.88;10.38;;;;;;;12.17;100.00;100579.59;5052870;28;20040;-63
2022/10/21 08:50:40;;;;;;;18.60;11.50;;;;;;;12.17;100.00;100587.38;5050673;28;20474;-62
2022/10/21 08:53:14;;;;;;;12.43;10.00;;;;;;;12.17;100.00;100579.59;5059960;28;20275;-62
2022/10/21 08:55:41;;;;;;;13.43;10.15;;;;;;;12.20;100.00;100579.66;5060069;28;20033;-62
2022/10/21 08:58:17;;;;;;;14.80;10.55;;;;;;;12.20;100.00;100591.75;5066631;28;20024;-63
2022/10/21 09:00:50;;;;;;;17.40;11.02;;;;;;;12.20;100.00;100591.75;5068081;28;20032;-62
2022/10/21 09:03:15;;;;;;;16.38;10.68;;;;;;;12.21;100.00;100601.31;5049495;28;20503;-62
2022/10/21 09:06:02;;;;;;;14.77;11.23;;;;;;;12.21;100.00;100602.19;5050322;28;20029;-62
2022/10/21 09:08:51;;;;;;;14.52;11.07;;;;;;;12.23;100.00;100604.81;5047465;28;20476;-63
2022/10/21 09:11:42;;;;;;;14.75;11.13;;;;;;;12.25;100.00;100609.19;5049473;28;20108;-63
2022/10/21 09:14:35;;;;;;;13.35;10.18;;;;;;;12.25;100.00;100609.19;5062385;28;20035;-62
2022/10/21 09:17:39;;;;;;;17.08;10.93;;;;;;;12.30;100.00;100603.22;5066504;28;20086;-62
2022/10/21 09:20:35;;;;;;;10.40;8.70;;;;;;;12.34;100.00;100597.25;5033766;28;20159;-62
2022/10/21 09:23:27;;;;;;;7.65;6.93;;;;;;;12.41;100.00;100588.72;5052302;28;20107;-62
2022/10/21 09:25:59;;;;;;;9.38;6.85;;;;;;;12.48;100.00;100585.41;5052387;28;20025;-62
2022/10/21 09:28:27;;;;;;;8.60;5.47;;;;;;;12.57;100.00;100586.44;5047781;28;20025;-62
2022/10/21 09:30:53;;;;;;;8.75;5.43;;;;;;;12.64;100.00;100596.13;5047077;28;20440;-62
2022/10/21 09:33:28;;;;;;;7.35;4.72;;;;;;;12.77;100.00;100593.75;5047983;28;20487;-63
2022/10/21 09:36:06;;;;;;;5.38;4.15;;;;;;;12.88;100.00;100589.63;5060901;28;20029;-62
2022/10/21 09:38:41;;;;;;;7.18;3.38;;;;;;;12.94;100.00;100601.88;5071030;28;20030;-62
2022/10/21 09:41:15;;;;;;;4.15;3.17;;;;;;;13.03;100.00;100598.56;5060295;28;20078;-62
2022/10/21 09:43:42;;;;;;;6.18;3.30;;;;;;;13.11;100.00;100591.78;5057120;28;20527;-63
2022/10/21 09:46:11;;;;;;;5.93;3.75;;;;;;;13.19;100.00;100600.59;5068442;28;20108;-62
2022/10/21 09:48:39;;;;;;;4.63;3.20;;;;;;;13.26;100.00;100591.16;5070637;28;20416;-62
2022/10/21 09:51:11;;;;;;;6.10;3.95;;;;;;;13.31;100.00;100599.06;5070904;28;20153;-63
2022/10/21 09:53:44;;;;;;;8.57;4.28;;;;;;;13.37;100.00;100588.72;5071323;28;20555;-62
2022/10/21 09:56:18;;;;;;;7.70;4.13;;;;;;;13.44;100.00;100592.31;5061008;28;20071;-62
2022/10/21 09:58:49;;;;;;;10.00;5.22;;;;;;;13.51;100.00;100596.75;5069520;28;20035;-63
2022/10/21 10:01:20;;;;;;;9.10;5.55;;;;;;;13.56;100.00;100599.47;5057391;28;20024;-63
2022/10/21 10:03:48;;;;;;;7.35;5.43;;;;;;;13.62;100.00;100607.38;5070115;28;20476;-63
2022/10/21 10:06:31;;;;;;;7.35;5.60;;;;;;;13.67;100.00;100599.66;5055938;28;20024;-63
2022/10/21 10:09:07;;;;;;;10.38;6.03;;;;;;;13.72;100.00;100611.00;5070005;28;20056;-63
2022/10/21 10:11:32;;;;;;;11.18;5.90;;;;;;;13.76;100.00;100607.59;5056791;28;20024;-63
2022/10/21 10:14:21;;;;;;;9.77;6.63;;;;;;;13.81;100.00;100605.06;5055129;28;20358;-63
2022/10/21 10:16:47;;;;;;;7.40;5.43;;;;;;;13.87;100.00;100605.13;5068769;28;20032;-62
2022/10/21 10:19:27;;;;;;;9.95;5.55;;;;;;;13.92;100.00;100608.69;5068076;28;20056;-62
2022/10/21 10:22:10;;;;;;;8.00;6.03;;;;;;;13.99;100.00;100627.91;5068158;28;20036;-63
2022/10/21 10:24:36;;;;;;;10.13;6.35;;;;;;;14.04;100.00;100625.34;5071424;28;20429;-64
2022/10/21 10:27:10;;;;;;;10.23;6.28;;;;;;;14.11;100.00;100624.59;5089047;28;20031;-64
2022/10/21 10:29:36;;;;;;;9.68;6.55;;;;;;;14.19;100.00;100623.81;5073676;28;20032;-64
2022/10/21 10:32:02;;;;;;;11.02;6.07;;;;;;;14.28;100.00;100618.75;5080868;28;20453;-64
2022/10/21 10:34:36;;;;;;;10.95;5.80;;;;;;;14.36;100.00;100617.09;5084271;28;20026;-64
2022/10/21 10:37:15;;;;;;;12.20;6.20;;;;;;;14.45;100.00;100621.53;5082330;28;20013;-64
2022/10/21 10:39:44;;;;;;;9.95;7.07;;;;;;;14.55;100.00;100619.94;5069706;28;20111;-64
2022/10/21 10:42:16;;;;;;;10.00;6.38;;;;;;;14.62;100.00;100616.56;5069322;28;20020;-64
2022/10/21 10:44:43;;;;;;;8.10;7.03;;;;;;;14.70;100.00;100618.34;5069460;28;20070;-64
2022/10/21 10:47:19;;;;;;;12.05;6.68;;;;;;;14.79;100.00;100612.38;5069059;28;20376;-64
2022/10/21 10:49:45;;;;;;;7.82;5.40;;;;;;;14.86;100.00;100615.09;5060201;28;20094;-64
2022/10/21 10:52:10;;;;;;;9.98;5.40;;;;;;;14.94;100.00;100623.00;5050987;28;20029;-64
2022/10/21 10:54:38;;;;;;;8.63;4.65;;;;;;;15.02;100.00;100620.44;5062140;28;20021;-63
2022/10/21 10:57:24;;;;;;;7.97;4.18;;;;;;;15.12;100.00;100619.72;5049232;28;20029;-63
2022/10/21 10:59:54;;;;;;;7.70;3.53;;;;;;;15.22;100.00;100622.38;5057871;28;20021;-63
2022/10/21 11:02:48;;;;;;;10.43;4.10;;;;;;;15.31;100.00;100612.03;5083109;28;20035;-63
2022/10/21 11:05:29;;;;;;;5.43;3.50;;;;;;;15.44;100.00;100622.56;5080882;28;20031;-63
2022/10/21 11:08:03;;;;;;;8.20;4.00;;;;;;;15.57;100.00;100606.16;5068052;28;20155;-63
2022/10/21 11:10:36;;;;;;;4.88;2.90;;;;;;;15.71;100.00;100602.75;5055891;28;20094;-63
2022/10/21 11:13:09;;;;;;;6.10;3.35;;;;;;;15.85;100.00;100601.13;5049916;28;20115;-64
2022/10/21 11:16:11;;;;;;;5.70;2.78;;;;;;;15.97;100.00;100594.22;5051370;28;20095;-63